Time;durP1;ratioP1;P1;durP2;ratioP2;P2;SDS_P1;SDS_P2;PMS_P1;PMS_P2;Temp;Humidity;BMP_temperature;BMP_pressure;BME280_temperature;BME280_humidity;BME280_pressure;Samples;Min_cycle;Max_cycle;Signal;HPM_P1;HPM_P2
2022/08/12 00:44:21;;;;;;;;;;;;;;;23.64;68.81;100709.16;1760866;81;20173;-71
2022/08/12 00:46:56;;;;;;;;;;;;;;;23.63;68.79;100709.52;1758542;81;20251;-71
2022/08/12 00:49:23;;;;;;;;;;;;;;;23.63;68.74;100718.48;1758901;81;21065;-71
2022/08/12 00:52:12;;;;;;;;;;;;;;;23.66;68.69;100723.83;1758192;80;20209;-71
2022/08/12 00:54:47;;;;;;;;;;;;;;;23.65;68.60;100735.28;1757653;81;20145;-71
2022/08/12 00:57:28;;;;;;;;;;;;;;;23.65;68.56;100744.03;1758559;81;20492;-70
2022/08/12 00:59:57;;;;;;;;;;;;;;;23.67;68.53;100749.16;1756187;81;20147;-72
2022/08/12 01:02:28;;;;;;;;;;;;;;;23.67;68.49;100745.06;1757873;81;21112;-72
2022/08/12 01:13:15;;;;;;;;;;;;;;;23.70;68.46;100740.33;1759180;81;20185;-72
2022/08/12 01:15:43;;;;;;;;;;;;;;;23.70;68.43;100745.78;1758611;81;21690;-73
2022/08/12 01:18:09;;;;;;;;;;;;;;;23.69;68.36;100744.17;1757796;81;20269;-71
2022/08/12 01:20:39;;;;;;;;;;;;;;;23.66;68.37;100733.38;1758187;81;20504;-71
2022/08/12 01:23:16;;;;;;;;;;;;;;;23.64;68.36;100737.00;1758118;81;20553;-72
2022/08/12 01:25:43;;;;;;;;;;;;;;;23.61;68.37;100739.83;1755909;81;20208;-71
2022/08/12 01:28:12;;;;;;;;;;;;;;;23.62;68.37;100735.95;1758188;81;21108;-70
2022/08/12 01:30:40;;;;;;;;;;;;;;;23.61;68.34;100741.19;1757775;81;20142;-71
2022/08/12 01:33:06;;;;;;;;;;;;;;;23.61;68.35;100733.59;1758246;81;20360;-73
2022/08/12 01:35:34;;;;;;;;;;;;;;;23.61;68.29;100737.10;1758140;81;20167;-72
2022/08/12 01:38:03;;;;;;;;;;;;;;;23.59;68.32;100734.48;1758609;81;20197;-72
2022/08/12 01:40:31;;;;;;;;;;;;;;;23.55;68.38;100730.28;1733644;81;21141;-72
2022/08/12 01:43:04;;;;;;;;;;;;;;;23.52;68.46;100733.69;1758713;81;20334;-71
2022/08/12 01:45:33;;;;;;;;;;;;;;;23.50;68.50;100729.16;1756973;81;20134;-72
2022/08/12 01:48:28;;;;;;;;;;;;;;;23.49;68.51;100735.72;1758642;81;20146;-72
2022/08/12 01:51:20;;;;;;;;;;;;;;;23.48;68.55;100736.87;1760146;81;20437;-72
2022/08/12 01:54:04;;;;;;;;;;;;;;;23.46;68.59;100733.70;1760796;81;21146;-71
2022/08/12 01:56:35;;;;;;;;;;;;;;;23.46;68.57;100730.16;1757698;81;20142;-71
2022/08/12 02:01:47;;;;;;;;;;;;;;;23.39;68.69;100722.55;1758540;81;20170;-71
2022/08/12 02:13:15;;;;;;;;;;;;;;;23.35;68.92;100713.46;1757930;81;20217;-70
2022/08/12 02:15:48;;;;;;;;;;;;;;;23.33;68.96;100722.53;1753418;80;20618;-70
2022/08/12 02:18:27;;;;;;;;;;;;;;;23.28;69.03;100716.75;1758253;81;20229;-72
2022/08/12 02:21:19;;;;;;;;;;;;;;;23.28;69.08;100714.59;1757249;81;21266;-72
2022/08/12 02:23:52;;;;;;;;;;;;;;;23.26;69.10;100715.48;1757491;81;20887;-71
2022/08/12 02:26:19;;;;;;;;;;;;;;;23.24;69.13;100713.69;1759522;81;20463;-73
2022/08/12 02:28:47;;;;;;;;;;;;;;;23.21;69.19;100712.43;1759116;81;20208;-73
2022/08/12 02:31:14;;;;;;;;;;;;;;;23.17;69.25;100708.22;1759345;81;20705;-72
2022/08/12 02:33:40;;;;;;;;;;;;;;;23.16;69.29;100718.91;1760053;81;21239;-73
2022/08/12 02:36:07;;;;;;;;;;;;;;;23.14;69.31;100717.08;1759823;81;20165;-73
2022/08/12 02:38:35;;;;;;;;;;;;;;;23.13;69.31;100715.49;1757544;81;20179;-72
2022/08/12 02:41:02;;;;;;;;;;;;;;;23.13;69.32;100714.13;1759677;81;20234;-73
2022/08/12 02:43:43;;;;;;;;;;;;;;;23.11;69.39;100712.87;1760714;81;20135;-72
2022/08/12 02:46:11;;;;;;;;;;;;;;;23.07;69.47;100716.05;1758670;81;21117;-72
2022/08/12 02:48:46;;;;;;;;;;;;;;;23.03;69.59;100710.45;1754607;81;20168;-72
2022/08/12 02:51:18;;;;;;;;;;;;;;;23.01;69.66;100711.37;1755725;81;20142;-73
2022/08/12 02:53:44;;;;;;;;;;;;;;;22.98;69.73;100713.41;1758102;81;20578;-71
2022/08/12 02:56:18;;;;;;;;;;;;;;;22.98;69.83;100713.97;1758393;81;20183;-72
2022/08/12 02:58:48;;;;;;;;;;;;;;;22.96;69.86;100711.57;1748618;81;21979;-71
2022/08/12 03:01:16;;;;;;;;;;;;;;;22.98;69.93;100716.70;1748468;81;20203;-71
2022/08/12 03:03:43;;;;;;;;;;;;;;;23.01;69.87;100716.03;1730530;83;20445;-72
2022/08/12 03:06:20;;;;;;;;;;;;;;;23.03;69.87;100714.53;1683288;83;20470;-71
2022/08/12 03:08:47;;;;;;;;;;;;;;;23.04;69.89;100712.06;1730637;82;20136;-71
2022/08/12 03:11:16;;;;;;;;;;;;;;;23.04;69.89;100701.16;1706508;83;21184;-72
2022/08/12 03:13:45;;;;;;;;;;;;;;;23.06;69.88;100694.00;1730456;81;20172;-72
2022/08/12 03:16:13;;;;;;;;;;;;;;;23.09;69.85;100698.78;1729472;81;20169;-72
2022/08/12 03:18:41;;;;;;;;;;;;;;;23.07;69.76;100693.68;1730551;81;20445;-72
2022/08/12 03:21:08;;;;;;;;;;;;;;;23.08;69.70;100695.27;1730707;81;20191;-71
2022/08/12 03:23:34;;;;;;;;;;;;;;;23.09;69.70;100704.23;1753891;80;20846;-72
2022/08/12 03:26:01;;;;;;;;;;;;;;;23.12;69.64;100708.43;1753640;80;20143;-71
2022/08/12 03:31:15;;;;;;;;;;;;;;;23.09;69.46;100706.38;1703207;83;20196;-73
2022/08/12 03:33:45;;;;;;;;;;;;;;;23.05;69.53;100711.48;1730391;81;20439;-73
2022/08/12 03:36:11;;;;;;;;;;;;;;;23.01;69.58;100712.73;1730548;81;21802;-72
2022/08/12 03:38:41;;;;;;;;;;;;;;;23.00;69.65;100726.13;1707724;83;20145;-72
2022/08/12 04:00:29;;;;;;;;;;;;;;;23.10;69.53;100729.79;1760459;81;20138;-72
2022/08/12 04:03:00;;;;;;;;;;;;;;;23.13;69.34;100729.66;1760526;81;21097;-72
2022/08/12 04:05:28;;;;;;;;;;;;;;;23.13;69.27;100726.39;1760500;81;20183;-72
2022/08/12 04:07:55;;;;;;;;;;;;;;;23.16;69.28;100724.89;1760504;81;20174;-73
2022/08/12 04:13:13;;;;;;;;;;;;;;;23.19;69.26;100716.05;1760560;81;20170;-72
2022/08/12 04:15:33;;;;;;;;;;;;;;;23.26;69.19;100724.45;1740615;81;21298;-72
2022/08/12 04:17:59;;;;;;;;;;;;;;;23.31;69.00;100720.73;1760604;81;20146;-73
2022/08/12 04:20:26;;;;;;;;;;;;;;;23.32;68.98;100715.50;1760580;81;20511;-73
2022/08/12 04:22:53;;;;;;;;;;;;;;;23.37;68.86;100720.74;1760665;81;20142;-73
2022/08/12 04:25:19;;;;;;;;;;;;;;;23.44;68.77;100718.82;1760780;81;20171;-73
2022/08/12 04:27:45;;;;;;;;;;;;;;;23.48;68.57;100717.78;1760576;81;21099;-73
2022/08/12 04:30:12;;;;;;;;;;;;;;;23.54;68.52;100721.09;1760556;81;20174;-71
2022/08/12 04:32:38;;;;;;;;;;;;;;;23.65;68.41;100729.03;1760755;81;20161;-73
2022/08/12 04:35:06;;;;;;;;;;;;;;;23.76;68.14;100718.52;1760846;81;20163;-73
2022/08/12 04:37:32;;;;;;;;;;;;;;;23.83;67.64;100720.09;1760896;81;20422;-72
2022/08/12 04:39:59;;;;;;;;;;;;;;;23.92;67.43;100707.67;1761213;81;21143;-72
2022/08/12 04:42:25;;;;;;;;;;;;;;;24.01;67.27;100713.80;1760776;81;20161;-73
2022/08/12 04:44:52;;;;;;;;;;;;;;;24.15;67.07;100706.61;1760814;81;20468;-72
2022/08/12 04:47:19;;;;;;;;;;;;;;;24.27;66.71;100705.22;1759170;81;20223;-73
2022/08/12 04:49:46;;;;;;;;;;;;;;;24.37;66.27;100701.20;1759099;81;20170;-72
2022/08/12 04:52:13;;;;;;;;;;;;;;;24.46;65.80;100704.05;1760687;81;21737;-72
2022/08/12 04:54:39;;;;;;;;;;;;;;;24.35;65.82;100702.93;1761077;81;20492;-72
2022/08/12 04:57:08;;;;;;;;;;;;;;;24.35;65.52;100705.66;1759528;81;20170;-73
2022/08/12 04:59:34;;;;;;;;;;;;;;;24.30;65.33;100703.95;1760576;81;20474;-72
2022/08/12 05:02:00;;;;;;;;;;;;;;;24.27;65.38;100704.64;1760772;81;20147;-72
2022/08/12 05:04:27;;;;;;;;;;;;;;;24.34;65.19;100704.84;1760919;81;21160;-72
2022/08/12 05:06:54;;;;;;;;;;;;;;;24.28;65.45;100695.88;1760570;81;20527;-72
2022/08/12 05:09:20;;;;;;;;;;;;;;;24.27;65.64;100684.75;1760812;81;20166;-73
2022/08/12 05:11:48;;;;;;;;;;;;;;;24.31;65.52;100682.91;1749223;81;20173;-71
2022/08/12 05:14:15;;;;;;;;;;;;;;;24.31;65.63;100691.88;1730706;81;20169;-72
2022/08/12 05:16:42;;;;;;;;;;;;;;;24.33;65.51;100699.16;1733527;80;21042;-73
2022/08/12 05:19:08;;;;;;;;;;;;;;;24.36;65.37;100697.69;1759897;81;20147;-73
2022/08/12 05:21:34;;;;;;;;;;;;;;;24.37;65.08;100703.36;1760770;81;20182;-73
2022/08/12 05:24:00;;;;;;;;;;;;;;;24.37;64.93;100697.90;1760909;81;20165;-71
2022/08/12 05:26:27;;;;;;;;;;;;;;;24.37;65.11;100699.84;1758378;81;20233;-72
2022/08/12 05:28:53;;;;;;;;;;;;;;;24.44;65.22;100697.34;1758175;81;21176;-72
2022/08/12 05:31:20;;;;;;;;;;;;;;;24.51;65.09;100700.27;1758944;81;20220;-72
2022/08/12 05:33:46;;;;;;;;;;;;;;;24.56;64.50;100707.64;1758043;81;20158;-72
2022/08/12 05:36:16;;;;;;;;;;;;;;;24.62;64.30;100710.14;1755911;81;20729;-72
2022/08/12 05:38:55;;;;;;;;;;;;;;;24.68;64.10;100707.35;1758002;81;20429;-72
2022/08/12 05:41:25;;;;;;;;;;;;;;;24.75;63.49;100707.57;1754754;81;22044;-72
2022/08/12 05:43:56;;;;;;;;;;;;;;;24.84;63.53;100708.77;1758034;81;20708;-72
2022/08/12 05:46:23;;;;;;;;;;;;;;;24.95;63.29;100707.91;1758214;81;20197;-72
2022/08/12 05:48:50;;;;;;;;;;;;;;;25.03;62.37;100719.81;1758786;81;20445;-85
2022/08/12 05:51:16;;;;;;;;;;;;;;;25.08;62.02;100713.31;1759347;81;20166;-87
2022/08/12 05:53:43;;;;;;;;;;;;;;;25.09;62.05;100727.19;1759182;81;21541;-84
2022/08/12 05:56:25;;;;;;;;;;;;;;;25.14;61.93;100734.59;1759166;81;20231;-84
2022/08/12 05:58:52;;;;;;;;;;;;;;;25.19;61.76;100718.49;1757758;81;20119;-90
2022/08/12 06:01:19;;;;;;;;;;;;;;;25.24;61.48;100720.98;1760226;81;20246;-88
2022/08/12 06:03:46;;;;;;;;;;;;;;;25.25;61.14;100724.72;1760049;81;20201;-85
2022/08/12 06:06:14;;;;;;;;;;;;;;;25.28;61.47;100704.66;1757877;81;21463;-83
2022/08/12 06:08:45;;;;;;;;;;;;;;;25.34;61.42;100705.41;1758011;81;20174;-83
2022/08/12 06:11:09;;;;;;;;;;;;;;;25.44;60.97;100724.59;1757413;81;20198;-81
2022/08/12 06:13:37;;;;;;;;;;;;;;;25.47;60.90;100720.58;1756211;81;20401;-81
2022/08/12 06:16:06;;;;;;;;;;;;;;;25.56;60.75;100711.37;1758979;81;20142;-85
2022/08/12 06:18:32;;;;;;;;;;;;;;;25.62;60.49;100719.53;1759849;81;21160;-87
2022/08/12 06:20:59;;;;;;;;;;;;;;;25.78;60.50;100720.89;1761169;81;20194;-71
2022/08/12 06:23:27;;;;;;;;;;;;;;;26.02;59.42;100719.30;1759583;81;20177;-73
2022/08/12 06:25:56;;;;;;;;;;;;;;;25.94;59.67;100711.52;1757631;81;20524;-71
2022/08/12 06:28:22;;;;;;;;;;;;;;;25.98;59.76;100712.17;1758110;81;20142;-71
2022/08/12 06:30:49;;;;;;;;;;;;;;;25.99;59.52;100710.44;1759647;81;21136;-72
2022/08/12 06:33:17;;;;;;;;;;;;;;;26.00;59.59;100703.04;1760071;81;20187;-71
2022/08/12 06:35:44;;;;;;;;;;;;;;;25.99;59.67;100711.80;1758652;81;20201;-71
2022/08/12 06:38:16;;;;;;;;;;;;;;;25.99;59.60;100713.17;1758277;81;20282;-72
2022/08/12 06:43:29;;;;;;;;;;;;;;;25.94;59.93;100721.09;1754570;81;21177;-71
2022/08/12 06:45:57;;;;;;;;;;;;;;;25.87;59.43;100715.47;1758258;81;20146;-72
2022/08/12 06:48:26;;;;;;;;;;;;;;;25.84;59.44;100718.13;1758650;81;20201;-71
2022/08/12 06:50:53;;;;;;;;;;;;;;;25.83;59.64;100711.87;1758375;81;20177;-70
2022/08/12 06:53:20;;;;;;;;;;;;;;;25.88;59.83;100708.84;1758430;81;20497;-71
2022/08/12 06:55:46;;;;;;;;;;;;;;;26.01;59.80;100712.83;1758664;81;21188;-71
2022/08/12 06:58:13;;;;;;;;;;;;;;;26.12;59.21;100711.89;1757878;81;20231;-70
2022/08/12 07:00:42;;;;;;;;;;;;;;;26.18;58.68;100706.94;1757382;81;20567;-72
2022/08/12 07:03:08;;;;;;;;;;;;;;;26.24;58.52;100710.98;1758426;81;20237;-71
2022/08/12 07:05:35;;;;;;;;;;;;;;;26.28;58.44;100708.31;1757854;81;20533;-72
2022/08/12 07:08:09;;;;;;;;;;;;;;;26.36;58.39;100707.31;1758411;81;21103;-73
2022/08/12 07:10:35;;;;;;;;;;;;;;;26.47;58.32;100705.58;1757237;80;20160;-71
2022/08/12 07:13:02;;;;;;;;;;;;;;;26.60;57.87;100701.55;1733833;81;20433;-72
2022/08/12 07:15:29;;;;;;;;;;;;;;;26.68;57.50;100699.73;1760213;81;20155;-71
2022/08/12 07:17:59;;;;;;;;;;;;;;;26.77;57.39;100696.19;1759300;81;20143;-73
2022/08/12 07:20:30;;;;;;;;;;;;;;;26.87;56.73;100698.33;1755951;81;21890;-73
2022/08/12 07:22:57;;;;;;;;;;;;;;;26.90;56.51;100704.45;1758577;81;20198;-70
2022/08/12 07:25:38;;;;;;;;;;;;;;;26.96;56.36;100704.17;1758466;81;20217;-73
2022/08/12 07:28:04;;;;;;;;;;;;;;;27.00;55.85;100697.58;1756615;81;20469;-71
2022/08/12 07:30:33;;;;;;;;;;;;;;;26.95;55.46;100697.90;1754329;81;20166;-71
2022/08/12 07:33:00;;;;;;;;;;;;;;;26.83;55.60;100696.11;1758366;81;21296;-71
2022/08/12 07:35:28;;;;;;;;;;;;;;;26.83;56.00;100696.11;1758579;81;20159;-72
2022/08/12 07:37:56;;;;;;;;;;;;;;;26.93;56.56;100689.82;1758433;81;20185;-70
2022/08/12 07:40:24;;;;;;;;;;;;;;;27.06;56.52;100683.00;1758761;81;20386;-71
2022/08/12 07:42:51;;;;;;;;;;;;;;;27.16;55.85;100689.27;1758131;81;20181;-69
2022/08/12 07:45:19;;;;;;;;;;;;;;;27.21;55.89;100688.95;1758059;81;21076;-71
2022/08/12 07:47:46;;;;;;;;;;;;;;;27.25;54.96;100684.92;1758819;81;20138;-71
2022/08/12 07:50:14;;;;;;;;;;;;;;;27.23;55.28;100682.53;1760119;81;20185;-72
2022/08/12 07:52:43;;;;;;;;;;;;;;;27.32;55.27;100674.84;1759480;81;20206;-70
2022/08/12 07:55:10;;;;;;;;;;;;;;;27.41;54.81;100679.27;1757721;81;20507;-72
2022/08/12 07:57:56;;;;;;;;;;;;;;;27.43;54.92;100682.44;1754827;81;21519;-73
2022/08/12 08:00:22;;;;;;;;;;;;;;;27.42;54.33;100679.50;1758762;81;20146;-73
2022/08/12 08:02:53;;;;;;;;;;;;;;;27.38;54.64;100689.59;1759253;81;20427;-71
2022/08/12 08:05:18;;;;;;;;;;;;;;;27.39;54.69;100685.72;1757733;81;20737;-72
2022/08/12 08:07:44;;;;;;;;;;;;;;;27.47;54.67;100677.21;1757256;81;20226;-71
2022/08/12 08:10:11;;;;;;;;;;;;;;;27.58;54.14;100682.88;1757705;81;21157;-71
2022/08/12 08:12:54;;;;;;;;;;;;;;;27.65;53.84;100685.72;1754129;81;20476;-72
2022/08/12 08:15:22;;;;;;;;;;;;;;;27.75;53.65;100683.71;1757938;81;20146;-73
2022/08/12 08:18:03;;;;;;;;;;;;;;;27.82;53.87;100675.60;1760414;80;20193;-72
2022/08/12 08:20:39;;;;;;;;;;;;;;;27.98;53.51;100664.44;1757902;81;20408;-72
2022/08/12 08:23:09;;;;;;;;;;;;;;;28.07;52.74;100653.19;1758201;81;21133;-70
2022/08/12 08:25:37;;;;;;;;;;;;;;;28.03;52.97;100655.86;1755303;81;20139;-71
2022/08/12 08:28:15;;;;;;;;;;;;;;;28.02;53.32;100658.41;1759268;81;20467;-72
2022/08/12 08:30:46;;;;;;;;;;;;;;;28.08;52.88;100656.13;1758639;81;20229;-70
2022/08/12 08:33:15;;;;;;;;;;;;;;;28.10;52.59;100657.94;1759233;81;20111;-91
2022/08/12 08:35:44;;;;;;;;;;;;;;;28.02;52.58;100658.41;1745576;81;21183;-83
2022/08/12 08:38:16;;;;;;;;;;;;;;;28.00;52.52;100664.05;1725867;82;20212;-87
2022/08/12 08:43:41;;;;;;;;;;;;;;;28.14;53.12;100671.70;1726883;83;20563;-89
2022/08/12 08:46:09;;;;;;;;;;;;;;;28.29;52.62;100682.46;1727118;82;20154;-88
2022/08/12 08:48:51;;;;;;;;;;;;;;;28.37;51.85;100683.95;1726100;82;21649;-86
2022/08/12 08:51:34;;;;;;;;;;;;;;;28.34;52.11;100695.69;1727452;83;20201;-89
2022/08/12 08:54:01;;;;;;;;;;;;;;;28.25;52.36;100695.96;1735678;80;20156;-72
2022/08/12 08:56:51;;;;;;;;;;;;;;;28.32;52.85;100695.25;1791430;80;20180;-73
2022/08/12 08:59:27;;;;;;;;;;;;;;;28.46;51.87;100698.19;1791994;79;20167;-72
2022/08/12 09:01:58;;;;;;;;;;;;;;;28.49;51.62;100701.56;1791697;80;21665;-70
2022/08/12 09:04:25;;;;;;;;;;;;;;;28.50;52.22;100708.07;1767714;80;20136;-70
2022/08/12 09:06:59;;;;;;;;;;;;;;;28.67;51.91;100704.52;1767123;80;20327;-70
2022/08/12 09:09:27;;;;;;;;;;;;;;;28.75;51.58;100704.20;1791432;79;20132;-72
2022/08/12 09:15:08;;;;;;;;;;;;;;;29.04;51.20;100699.60;1741242;81;21184;-70
2022/08/12 09:17:35;;;;;;;;;;;;;;;29.26;51.18;100710.21;1757406;81;20200;-71
2022/08/12 09:20:01;;;;;;;;;;;;;;;29.37;50.42;100712.45;1744786;81;20185;-71
2022/08/12 09:22:28;;;;;;;;;;;;;;;29.40;50.34;100717.98;1760690;81;20843;-72
2022/08/12 09:24:55;;;;;;;;;;;;;;;29.51;50.35;100712.55;1760827;81;20468;-69
2022/08/12 09:27:21;;;;;;;;;;;;;;;29.58;49.95;100712.62;1756507;81;21206;-71
2022/08/12 09:29:47;;;;;;;;;;;;;;;29.63;49.64;100705.98;1760494;81;20162;-72
2022/08/12 09:32:14;;;;;;;;;;;;;;;29.72;49.49;100712.54;1760532;81;20405;-70
2022/08/12 09:34:40;;;;;;;;;;;;;;;29.80;49.39;100715.52;1759673;81;20280;-79
2022/08/12 09:37:06;;;;;;;;;;;;;;;29.81;49.11;100712.41;1758680;81;20135;-71
2022/08/12 09:39:32;;;;;;;;;;;;;;;29.86;49.22;100705.14;1758689;81;21098;-71
2022/08/12 09:47:19;;;;;;;;;;;;;;;29.82;49.52;100698.05;1703484;81;20134;-70
2022/08/12 09:49:48;;;;;;;;;;;;;;;29.75;49.44;100694.66;1761092;81;20151;-70
2022/08/12 09:52:14;;;;;;;;;;;;;;;29.62;49.77;100691.44;1758047;81;22994;-71
2022/08/12 09:54:41;;;;;;;;;;;;;;;29.49;50.29;100700.36;1758490;81;20517;-70
2022/08/12 09:57:17;;;;;;;;;;;;;;;29.34;50.80;100720.09;1757719;81;20181;-69
2022/08/12 09:59:36;;;;;;;;;;;;;;;29.18;51.28;100729.97;1757928;81;20546;-82
2022/08/12 10:02:03;;;;;;;;;;;;;;;28.97;51.73;100741.54;1758556;81;20150;-70
2022/08/12 10:04:29;;;;;;;;;;;;;;;28.76;52.29;100739.38;1755831;81;21157;-70
2022/08/12 10:06:55;;;;;;;;;;;;;;;28.61;52.63;100734.88;1757712;81;20458;-71
2022/08/12 10:09:22;;;;;;;;;;;;;;;28.50;52.98;100733.39;1755010;81;20142;-71
2022/08/12 10:14:34;;;;;;;;;;;;;;;28.43;53.62;100740.14;1755191;81;20170;-70
2022/08/12 10:17:00;;;;;;;;;;;;;;;28.42;53.81;100751.72;1758384;81;21107;-70
2022/08/12 10:19:26;;;;;;;;;;;;;;;28.44;54.20;100748.62;1758552;81;20253;-69
2022/08/12 10:21:53;;;;;;;;;;;;;;;28.49;53.52;100747.68;1757690;81;20185;-70
2022/08/12 10:24:21;;;;;;;;;;;;;;;28.52;52.96;100746.94;1759327;81;20585;-71
2022/08/12 10:29:41;;;;;;;;;;;;;;;28.62;52.76;100740.57;1760655;81;21295;-71
2022/08/12 10:32:09;;;;;;;;;;;;;;;28.60;51.96;100735.47;1759439;81;20237;-70
2022/08/12 10:34:35;;;;;;;;;;;;;;;28.59;52.15;100739.36;1760214;81;20448;-70
2022/08/12 10:37:03;;;;;;;;;;;;;;;28.57;52.04;100741.70;1759171;81;20170;-71
2022/08/12 10:39:31;;;;;;;;;;;;;;;28.55;52.11;100745.41;1757658;81;20162;-70
2022/08/12 10:44:45;;;;;;;;;;;;;;;28.60;52.01;100751.95;1758263;81;20428;-70
2022/08/12 10:47:12;;;;;;;;;;;;;;;28.67;52.19;100747.91;1757950;81;20414;-71
2022/08/12 10:49:38;;;;;;;;;;;;;;;28.72;52.43;100748.14;1758565;81;20134;-69
2022/08/12 10:52:05;;;;;;;;;;;;;;;28.81;52.70;100750.02;1758067;81;20150;-70
2022/08/12 10:54:32;;;;;;;;;;;;;;;28.82;51.73;100748.05;1758232;81;21197;-71
2022/08/12 10:56:59;;;;;;;;;;;;;;;28.82;52.22;100743.34;1758075;81;20134;-70
2022/08/12 10:59:28;;;;;;;;;;;;;;;28.79;51.51;100743.30;1757458;81;20357;-70
2022/08/12 11:01:55;;;;;;;;;;;;;;;28.73;51.74;100736.00;1757921;81;20472;-70
2022/08/12 11:04:23;;;;;;;;;;;;;;;28.63;51.46;100729.22;1758914;81;20441;-82
2022/08/12 11:06:49;;;;;;;;;;;;;;;28.56;51.91;100718.13;1758783;81;21132;-82
2022/08/12 11:09:17;;;;;;;;;;;;;;;28.50;51.96;100714.94;1759031;81;20181;-81
2022/08/12 11:11:47;;;;;;;;;;;;;;;28.44;52.27;100704.07;1758470;81;20468;-78
2022/08/12 11:14:16;;;;;;;;;;;;;;;28.42;52.55;100706.98;1755832;81;20163;-82
2022/08/12 11:16:43;;;;;;;;;;;;;;;28.41;52.70;100708.94;1760068;81;20162;-79
2022/08/12 11:19:11;;;;;;;;;;;;;;;28.37;52.76;100714.95;1761078;81;21119;-71
2022/08/12 11:21:38;;;;;;;;;;;;;;;28.32;52.94;100723.51;1759050;81;20142;-69
2022/08/12 11:24:05;;;;;;;;;;;;;;;28.27;53.19;100725.23;1757785;81;20139;-70
2022/08/12 11:26:32;;;;;;;;;;;;;;;28.27;53.59;100732.09;1758444;81;20390;-70
2022/08/12 11:28:58;;;;;;;;;;;;;;;28.23;53.77;100733.42;1758122;81;20163;-70
2022/08/12 11:31:25;;;;;;;;;;;;;;;28.24;53.94;100732.84;1758332;81;21086;-70
2022/08/12 11:33:51;;;;;;;;;;;;;;;28.25;53.74;100732.45;1758811;81;20487;-70
2022/08/12 11:36:18;;;;;;;;;;;;;;;28.27;53.83;100730.14;1758277;81;20198;-71
2022/08/12 11:38:44;;;;;;;;;;;;;;;28.32;53.62;100718.02;1758154;81;20215;-70
2022/08/12 11:41:11;;;;;;;;;;;;;;;28.35;53.34;100712.36;1758619;81;20202;-70
2022/08/12 11:43:37;;;;;;;;;;;;;;;28.34;53.26;100723.16;1758309;81;21164;-70
2022/08/12 11:46:04;;;;;;;;;;;;;;;28.30;53.32;100724.48;1758339;81;21085;-69
2022/08/12 11:48:40;;;;;;;;;;;;;;;28.22;53.17;100724.95;1759322;81;20425;-71
2022/08/12 11:51:07;;;;;;;;;;;;;;;28.18;53.39;100721.37;1738686;81;20205;-69
2022/08/12 11:53:35;;;;;;;;;;;;;;;28.16;53.36;100714.08;1759808;81;20195;-68
2022/08/12 11:56:05;;;;;;;;;;;;;;;28.16;53.75;100719.58;1759172;81;21523;-70
2022/08/12 11:58:32;;;;;;;;;;;;;;;28.15;53.69;100720.75;1759669;81;20139;-70
2022/08/12 12:00:59;;;;;;;;;;;;;;;28.15;54.03;100722.71;1760484;81;20173;-70
2022/08/12 12:03:25;;;;;;;;;;;;;;;28.10;54.19;100715.59;1759977;81;20769;-70
2022/08/12 12:05:52;;;;;;;;;;;;;;;28.11;54.33;100723.25;1758313;81;20202;-69
2022/08/12 12:08:23;;;;;;;;;;;;;;;28.13;54.30;100726.40;1758496;81;21145;-69
2022/08/12 12:10:49;;;;;;;;;;;;;;;28.13;54.48;100722.28;1758130;81;20186;-70
2022/08/12 12:13:17;;;;;;;;;;;;;;;28.16;54.57;100720.16;1760420;81;20150;-70
2022/08/12 12:15:44;;;;;;;;;;;;;;;28.17;54.36;100723.92;1759753;81;20429;-70
2022/08/12 12:18:25;;;;;;;;;;;;;;;28.23;54.15;100722.44;1760721;81;20139;-70
2022/08/12 12:20:53;;;;;;;;;;;;;;;28.33;54.02;100718.80;1760828;81;21165;-70
2022/08/12 12:23:19;;;;;;;;;;;;;;;28.51;53.92;100717.09;1761104;81;20143;-69
2022/08/12 12:25:45;;;;;;;;;;;;;;;28.72;53.54;100720.06;1760849;81;20138;-71
2022/08/12 12:28:12;;;;;;;;;;;;;;;28.89;53.08;100720.62;1760738;81;20143;-71
2022/08/12 12:30:38;;;;;;;;;;;;;;;29.02;52.41;100711.55;1760905;81;20154;-70
2022/08/12 12:33:05;;;;;;;;;;;;;;;29.02;51.67;100701.92;1759039;81;21779;-70
2022/08/12 12:35:32;;;;;;;;;;;;;;;29.06;52.19;100705.52;1758289;81;20488;-70
2022/08/12 12:38:00;;;;;;;;;;;;;;;29.12;52.16;100695.73;1758126;81;20192;-70
2022/08/12 12:40:29;;;;;;;;;;;;;;;29.16;52.01;100693.82;1733057;81;20142;-70
2022/08/12 12:42:55;;;;;;;;;;;;;;;29.25;52.06;100701.73;1755484;81;20149;-71
2022/08/12 12:45:22;;;;;;;;;;;;;;;29.37;51.50;100700.06;1758774;81;21077;-69
2022/08/12 12:47:59;;;;;;;;;;;;;;;29.43;51.32;100702.67;1759542;81;20163;-74
2022/08/12 12:50:27;;;;;;;;;;;;;;;29.47;51.05;100707.61;1759947;81;20151;-69
2022/08/12 12:52:53;;;;;;;;;;;;;;;29.45;51.25;100710.76;1760307;81;20166;-70
2022/08/12 12:55:20;;;;;;;;;;;;;;;29.48;50.87;100702.30;1760835;81;20162;-72
2022/08/12 12:57:47;;;;;;;;;;;;;;;29.47;51.11;100715.08;1759550;81;21143;-71
2022/08/12 13:00:14;;;;;;;;;;;;;;;29.50;51.36;100706.84;1758597;81;20177;-70
2022/08/12 13:02:56;;;;;;;;;;;;;;;29.53;51.12;100711.59;1759732;81;20356;-69
2022/08/12 13:05:17;;;;;;;;;;;;;;;29.55;51.51;100703.75;1752960;81;20165;-70
2022/08/12 13:07:44;;;;;;;;;;;;;;;29.62;51.43;100712.67;1758278;81;20206;-73
2022/08/12 13:10:11;;;;;;;;;;;;;;;29.72;51.62;100710.57;1757712;81;21225;-70
2022/08/12 13:12:38;;;;;;;;;;;;;;;29.87;51.32;100701.80;1758137;81;20170;-70
2022/08/12 13:15:09;;;;;;;;;;;;;;;30.00;50.69;100698.13;1758473;81;20126;-70
2022/08/12 13:17:36;;;;;;;;;;;;;;;30.07;50.25;100696.19;1758932;81;20147;-69
2022/08/12 13:20:04;;;;;;;;;;;;;;;30.14;50.14;100694.05;1759892;81;20147;-71
2022/08/12 13:22:31;;;;;;;;;;;;;;;30.17;50.09;100698.00;1760579;81;21159;-69
2022/08/12 13:24:58;;;;;;;;;;;;;;;30.20;50.16;100712.41;1760754;81;20131;-71
2022/08/12 13:27:30;;;;;;;;;;;;;;;30.15;49.35;100704.70;1759414;81;21200;-70
2022/08/12 13:29:56;;;;;;;;;;;;;;;30.07;49.71;100703.07;1759582;81;20460;-70
2022/08/12 13:32:22;;;;;;;;;;;;;;;30.02;49.95;100713.09;1760787;81;20150;-70
2022/08/12 13:34:52;;;;;;;;;;;;;;;29.96;49.91;100706.38;1760590;81;21131;-70
2022/08/12 13:37:26;;;;;;;;;;;;;;;29.86;49.95;100716.74;1760191;81;20131;-69
2022/08/12 13:39:53;;;;;;;;;;;;;;;29.81;51.04;100734.98;1737461;81;20178;-71
2022/08/12 13:42:21;;;;;;;;;;;;;;;29.74;51.25;100730.82;1760584;81;20216;-70
2022/08/12 13:44:52;;;;;;;;;;;;;;;29.63;51.66;100723.28;1760727;81;20134;-70
2022/08/12 13:47:22;;;;;;;;;;;;;;;29.51;51.46;100720.80;1760599;81;21567;-71
2022/08/12 13:49:50;;;;;;;;;;;;;;;29.39;51.81;100708.16;1760610;81;20445;-70
2022/08/12 13:52:20;;;;;;;;;;;;;;;29.27;52.13;100708.44;1760550;81;20146;-70
2022/08/12 13:54:46;;;;;;;;;;;;;;;29.20;52.39;100703.67;1759568;81;20325;-70
2022/08/12 13:57:14;;;;;;;;;;;;;;;29.13;52.82;100715.20;1760606;81;20123;-70
2022/08/12 13:59:43;;;;;;;;;;;;;;;29.04;53.18;100721.02;1761059;81;21221;-70
2022/08/12 14:02:12;;;;;;;;;;;;;;;28.92;53.39;100714.38;1759841;81;20170;-70
2022/08/12 14:04:40;;;;;;;;;;;;;;;28.80;53.35;100703.67;1760266;81;20189;-71
2022/08/12 14:07:07;;;;;;;;;;;;;;;28.73;53.87;100692.81;1760417;81;20163;-70
2022/08/12 14:10:34;;;;;;;;;;;;;;;28.67;53.79;100687.44;1755560;81;20229;-71
2022/08/12 14:12:05;;;;;;;;;;;;;;;28.60;53.81;100688.74;1754711;81;21817;-70
2022/08/12 14:14:34;;;;;;;;;;;;;;;28.56;54.02;100694.77;1760756;81;20979;-70
2022/08/12 14:17:10;;;;;;;;;;;;;;;28.51;54.12;100698.65;1737492;81;20170;-71
2022/08/12 14:22:32;;;;;;;;;;;;;;;28.50;54.27;100695.70;1760571;81;20182;-69
2022/08/12 14:25:05;;;;;;;;;;;;;;;28.51;54.30;100685.50;1760871;81;21066;-72
2022/08/12 14:27:38;;;;;;;;;;;;;;;28.52;54.25;100676.08;1760380;81;20130;-71
2022/08/12 14:30:07;;;;;;;;;;;;;;;28.52;54.17;100681.58;1760769;81;20441;-71
2022/08/12 14:32:35;;;;;;;;;;;;;;;28.48;54.20;100681.54;1760609;81;20159;-71
2022/08/12 14:35:06;;;;;;;;;;;;;;;28.43;54.37;100673.65;1760783;81;20145;-70
2022/08/12 14:37:38;;;;;;;;;;;;;;;28.41;54.51;100671.84;1760943;81;21112;-71